createdAt,value
2023-03-02T00:02:56.864Z,22.75
2023-03-02T00:08:00.052Z,20.38
2023-03-02T00:13:02.513Z,17.13
2023-03-02T00:18:04.798Z,14.85
2023-03-02T00:23:06.907Z,17.70
2023-03-02T00:28:09.348Z,14.90
2023-03-02T00:33:11.523Z,16.88
2023-03-02T00:38:13.884Z,14.77
2023-03-02T00:43:17.018Z,16.70
2023-03-02T00:48:19.210Z,16.00
2023-03-02T00:53:21.278Z,15.18
2023-03-02T00:58:23.581Z,13.63
2023-03-02T01:03:26.100Z,16.42
2023-03-02T01:08:28.528Z,19.85
2023-03-02T01:13:30.583Z,18.95
2023-03-02T01:18:33.391Z,18.38
2023-03-02T01:23:35.903Z,17.65
2023-03-02T01:28:38.183Z,17.42
2023-03-02T01:33:40.321Z,18.65
2023-03-02T01:38:42.805Z,16.40
2023-03-02T01:43:44.968Z,14.93
2023-03-02T01:48:57.361Z,15.70
2023-03-02T01:54:05.138Z,15.20
2023-03-02T01:59:12.732Z,19.70
2023-03-02T02:04:15.322Z,19.58
2023-03-02T02:09:20.391Z,16.70
2023-03-02T02:14:22.956Z,20.92
2023-03-02T02:19:25.119Z,29.05
2023-03-02T02:24:40.200Z,31.23
2023-03-02T02:29:50.144Z,20.17
2023-03-02T02:39:55.201Z,17.10
2023-03-02T02:45:02.229Z,19.45
2023-03-02T02:50:04.713Z,18.13
2023-03-02T02:55:07.335Z,16.83
2023-03-02T03:00:19.854Z,15.18
2023-03-02T03:05:22.177Z,18.40
2023-03-02T03:10:35.360Z,18.23
2023-03-02T03:15:37.809Z,16.02
2023-03-02T03:20:42.449Z,20.83
2023-03-02T03:25:44.621Z,20.27
2023-03-02T03:30:46.851Z,20.08
2023-03-02T03:35:49.225Z,20.38
2023-03-02T03:40:51.414Z,21.42
2023-03-02T03:45:53.623Z,20.58
2023-03-02T03:50:55.831Z,22.75
2023-03-02T03:55:58.095Z,22.05
2023-03-02T04:01:01.100Z,21.48
2023-03-02T04:06:03.290Z,25.42
2023-03-02T04:11:05.540Z,23.17
2023-03-02T04:16:07.975Z,18.00
2023-03-02T04:21:10.226Z,20.45
2023-03-02T04:26:12.430Z,18.77
2023-03-02T04:31:14.774Z,26.35
2023-03-02T04:36:17.063Z,19.58
2023-03-02T04:41:19.827Z,21.95
2023-03-02T04:46:24.425Z,21.10
2023-03-02T04:51:32.367Z,25.67
2023-03-02T04:56:35.187Z,21.90
2023-03-02T05:01:37.446Z,20.75
2023-03-02T05:06:40.003Z,18.23
2023-03-02T05:11:42.302Z,19.33
2023-03-02T05:16:44.505Z,20.85
2023-03-02T05:21:46.998Z,21.80
2023-03-02T05:26:49.185Z,16.00
2023-03-02T05:31:51.542Z,20.05
2023-03-02T05:36:53.943Z,18.63
2023-03-02T05:41:56.221Z,15.13
2023-03-02T05:46:58.452Z,17.67
2023-03-02T05:52:00.695Z,20.67
2023-03-02T05:57:03.002Z,18.35
2023-03-02T06:02:05.198Z,17.25
2023-03-02T06:07:07.396Z,15.15
2023-03-02T06:12:09.881Z,16.52
2023-03-02T06:17:12.000Z,13.98
2023-03-02T06:22:14.272Z,15.38
2023-03-02T06:27:16.444Z,15.38
2023-03-02T06:32:18.772Z,18.17
2023-03-02T06:37:21.082Z,19.17
2023-03-02T06:42:24.613Z,20.92
2023-03-02T06:47:26.801Z,21.92
2023-03-02T06:52:29.190Z,19.02
2023-03-02T06:57:34.365Z,16.35
2023-03-02T07:02:37.827Z,20.80
2023-03-02T07:07:40.473Z,17.40
2023-03-02T07:12:43.076Z,24.20
2023-03-02T07:17:46.092Z,19.90
2023-03-02T07:22:48.510Z,20.90
2023-03-02T07:27:50.771Z,23.90
2023-03-02T07:32:52.861Z,19.02
2023-03-02T07:37:55.214Z,21.73
2023-03-02T07:42:57.632Z,15.23
2023-03-02T07:47:59.884Z,15.98
2023-03-02T07:53:02.053Z,16.55
2023-03-02T07:58:04.281Z,21.73
2023-03-02T08:03:06.441Z,28.00
2023-03-02T08:08:08.561Z,25.50
2023-03-02T08:13:10.791Z,20.92
2023-03-02T08:18:13.005Z,23.65
2023-03-02T08:23:15.176Z,22.08
2023-03-02T08:28:17.320Z,21.08
2023-03-02T08:33:19.430Z,18.08
2023-03-02T08:38:21.602Z,22.67
2023-03-02T08:43:25.843Z,25.63
2023-03-02T08:48:29.065Z,21.98
2023-03-02T08:53:33.650Z,16.42
2023-03-02T08:58:35.831Z,23.83
2023-03-02T09:03:38.017Z,22.15
2023-03-02T09:08:40.630Z,19.02
2023-03-02T09:13:42.822Z,17.00
2023-03-02T09:18:45.035Z,22.63
2023-03-02T09:23:47.266Z,24.45
2023-03-02T09:28:49.599Z,21.92
2023-03-02T09:33:51.901Z,17.50
2023-03-02T09:38:55.239Z,17.77
2023-03-02T09:44:33.480Z,19.35
2023-03-02T09:49:54.335Z,18.20
2023-03-02T09:55:01.142Z,20.35
2023-03-02T10:00:19.132Z,18.13
2023-03-02T10:05:29.839Z,20.35
2023-03-02T10:10:45.459Z,23.25
2023-03-02T10:15:59.383Z,19.52
2023-03-02T10:21:24.022Z,24.25
2023-03-02T10:26:39.987Z,22.90
2023-03-02T10:31:43.777Z,28.90
2023-03-02T10:36:48.073Z,28.95
2023-03-02T10:42:08.005Z,24.92
2023-03-02T10:47:24.166Z,24.20
2023-03-02T10:52:28.926Z,23.52
2023-03-02T10:57:37.323Z,19.27
2023-03-02T11:02:39.550Z,17.35
2023-03-02T11:07:55.918Z,18.58
2023-03-02T11:12:59.287Z,18.33
2023-03-02T11:18:10.340Z,21.98
2023-03-02T11:23:27.081Z,19.63
2023-03-02T11:28:53.050Z,22.75
2023-03-02T11:34:18.236Z,24.15
2023-03-02T11:39:26.549Z,21.95
2023-03-02T11:44:30.169Z,23.50
2023-03-02T11:49:56.436Z,26.17
2023-03-02T11:55:06.712Z,22.17
2023-03-02T12:00:30.086Z,24.00
2023-03-02T12:05:36.194Z,36.40
2023-03-02T12:10:43.912Z,28.25
2023-03-02T12:15:51.267Z,26.23
2023-03-02T12:21:07.142Z,14.82
2023-03-02T12:26:37.345Z,16.98
2023-03-02T12:31:42.625Z,16.23
2023-03-02T12:36:45.427Z,11.80
2023-03-02T12:42:25.837Z,12.50
2023-03-02T12:47:30.413Z,14.95
2023-03-02T12:52:35.770Z,15.27
2023-03-02T12:57:49.853Z,13.13
2023-03-02T13:02:57.332Z,13.13
2023-03-02T13:08:25.648Z,16.45
2023-03-02T13:13:51.634Z,12.90
2023-03-02T13:18:57.504Z,16.13
2023-03-02T13:24:00.563Z,13.30
2023-03-02T13:29:15.045Z,21.42
2023-03-02T13:34:28.895Z,18.70
2023-03-02T13:39:32.284Z,22.10
2023-03-02T13:44:36.127Z,19.38
2023-03-02T13:49:38.261Z,16.13
2023-03-02T13:54:44.482Z,12.63
2023-03-02T13:59:46.700Z,11.27
2023-03-02T14:04:48.920Z,14.45
2023-03-02T14:09:51.342Z,17.40
2023-03-02T14:14:58.537Z,17.33
2023-03-02T14:20:00.971Z,20.45
2023-03-02T14:25:03.191Z,19.35
2023-03-02T14:30:22.158Z,17.20
2023-03-02T14:35:26.014Z,19.50
2023-03-02T14:40:28.796Z,19.00
2023-03-02T14:45:31.144Z,26.05
2023-03-02T14:50:39.074Z,23.15
2023-03-02T14:55:42.582Z,20.60
2023-03-02T15:00:45.508Z,18.90
2023-03-02T15:06:00.212Z,18.20
2023-03-02T15:11:03.319Z,19.80
2023-03-02T15:16:05.708Z,15.00
2023-03-02T15:21:12.479Z,18.63
2023-03-02T15:26:14.900Z,15.30
2023-03-02T15:31:17.623Z,16.67
2023-03-02T15:36:20.769Z,18.42
2023-03-02T15:41:23.157Z,14.70
2023-03-02T15:46:26.115Z,19.00
2023-03-02T15:51:28.280Z,20.30
2023-03-02T15:56:42.343Z,21.67
2023-03-02T16:01:46.222Z,20.67
2023-03-02T16:06:48.657Z,20.05
2023-03-02T16:11:52.021Z,24.13
2023-03-02T16:16:54.402Z,23.58
2023-03-02T16:21:56.700Z,23.00
2023-03-02T16:26:58.906Z,20.33
2023-03-02T16:32:01.143Z,25.90
2023-03-02T16:37:04.402Z,26.80
2023-03-02T16:42:06.745Z,33.28
2023-03-02T16:47:08.974Z,28.83
2023-03-02T16:52:11.401Z,23.17
2023-03-02T16:57:13.483Z,29.27
2023-03-02T17:02:16.369Z,27.30
2023-03-02T17:07:19.562Z,29.67
2023-03-02T17:12:21.712Z,30.58
2023-03-02T17:17:24.001Z,26.42
2023-03-02T17:22:26.218Z,28.65
2023-03-02T17:27:28.371Z,26.77
2023-03-02T17:32:30.637Z,24.90
2023-03-02T17:37:34.459Z,22.63
2023-03-02T17:42:39.055Z,23.60
2023-03-02T17:47:41.390Z,20.73
2023-03-02T17:52:43.542Z,22.10
2023-03-02T17:57:45.794Z,18.80
2023-03-02T18:02:48.525Z,20.02
2023-03-02T18:07:52.544Z,21.88
2023-03-02T18:12:55.163Z,26.35
2023-03-02T18:17:58.273Z,25.27
2023-03-02T18:23:00.812Z,14.95
2023-03-02T18:28:03.128Z,15.07
2023-03-02T18:33:05.617Z,18.13
2023-03-02T18:38:08.203Z,16.63
2023-03-02T18:43:10.575Z,11.73
2023-03-02T18:48:13.322Z,12.52
2023-03-02T18:53:15.869Z,12.82
2023-03-02T18:58:20.752Z,14.60
2023-03-02T19:03:25.206Z,13.95
2023-03-02T19:08:28.202Z,12.95
2023-03-02T19:13:30.422Z,16.77
2023-03-02T19:18:33.577Z,18.77
2023-03-02T19:23:35.758Z,20.85
2023-03-02T19:28:41.299Z,20.33
2023-03-02T19:33:45.549Z,23.42
2023-03-02T19:38:48.219Z,21.42
2023-03-02T19:43:50.677Z,19.30
2023-03-02T19:48:53.166Z,24.13
2023-03-02T19:53:55.508Z,23.48
2023-03-02T19:58:58.290Z,21.88
2023-03-02T20:04:01.191Z,19.45
2023-03-02T20:09:06.801Z,24.45
2023-03-02T20:14:09.124Z,24.80
2023-03-02T20:19:14.230Z,21.77
2023-03-02T20:24:17.414Z,26.08
2023-03-02T20:29:19.970Z,30.38
2023-03-02T20:34:22.451Z,22.90
2023-03-02T20:39:31.874Z,25.65
2023-03-02T20:44:35.218Z,23.48
2023-03-02T20:49:39.125Z,25.50
2023-03-02T20:54:43.157Z,24.85
2023-03-02T20:59:47.087Z,26.70
2023-03-02T21:04:49.773Z,24.05
2023-03-02T21:09:52.091Z,16.90
2023-03-02T21:14:54.831Z,21.77
2023-03-02T21:19:58.088Z,17.67
2023-03-02T21:25:00.387Z,10.32
2023-03-02T21:30:06.434Z,11.40
2023-03-02T21:35:10.436Z,10.55
2023-03-02T21:40:30.779Z,8.85
2023-03-02T21:45:35.044Z,10.15
2023-03-02T21:50:38.780Z,7.25
2023-03-02T21:55:41.002Z,10.98
2023-03-02T22:00:43.307Z,12.88
2023-03-02T22:05:45.716Z,12.45
2023-03-02T22:10:50.128Z,22.92
2023-03-02T22:16:15.682Z,26.10
2023-03-02T22:21:26.956Z,11.43
2023-03-02T22:26:29.181Z,13.32
2023-03-02T22:31:31.622Z,11.05
2023-03-02T22:36:34.300Z,11.90
2023-03-02T22:41:36.439Z,17.70
2023-03-02T22:46:38.724Z,10.07
2023-03-02T22:51:41.545Z,10.32
2023-03-02T22:56:46.901Z,7.70
2023-03-02T23:01:49.587Z,6.40
2023-03-02T23:06:57.047Z,9.05
2023-03-02T23:12:03.021Z,12.10
2023-03-02T23:17:34.967Z,8.38
2023-03-02T23:22:39.342Z,8.45
2023-03-02T23:27:41.537Z,7.43
2023-03-02T23:32:44.824Z,11.70
2023-03-02T23:37:47.114Z,7.38
2023-03-02T23:42:50.313Z,9.70
2023-03-02T23:47:52.787Z,6.88
2023-03-02T23:52:54.970Z,6.30
2023-03-02T23:57:57.096Z,5.68
